createdAt,value
2022-09-01T00:00:07.122Z,2.40
2022-09-01T00:02:35.620Z,3.00
2022-09-01T00:05:04.648Z,1.93
2022-09-01T00:07:34.592Z,2.03
2022-09-01T00:10:05.092Z,2.53
2022-09-01T00:12:33.105Z,2.33
2022-09-01T00:15:02.413Z,2.77
2022-09-01T00:17:31.112Z,2.07
2022-09-01T00:19:59.021Z,1.83
2022-09-01T00:22:27.277Z,3.37
2022-09-01T00:24:55.272Z,2.13
2022-09-01T00:27:27.991Z,3.80
2022-09-01T00:29:58.991Z,2.90
2022-09-01T00:32:28.691Z,2.23
2022-09-01T00:34:56.676Z,2.80
2022-09-01T00:37:24.612Z,2.23
2022-09-01T00:39:52.595Z,2.50
2022-09-01T00:42:20.833Z,2.53
2022-09-01T00:44:49.150Z,2.37
2022-09-01T00:47:17.528Z,4.33
2022-09-01T00:49:50.345Z,2.40
2022-09-01T00:52:22.683Z,3.97
2022-09-01T00:54:53.473Z,4.07
2022-09-01T00:57:22.268Z,3.07
2022-09-01T00:59:54.262Z,3.70
2022-09-01T01:02:22.851Z,2.80
2022-09-01T01:04:52.693Z,3.03
2022-09-01T01:07:22.920Z,2.40
2022-09-01T01:09:52.290Z,2.60
2022-09-01T01:12:21.115Z,4.10
2022-09-01T01:14:50.992Z,2.50
2022-09-01T01:17:19.900Z,2.77
2022-09-01T01:20:08.935Z,2.97
2022-09-01T01:23:03.441Z,2.37
2022-09-01T01:25:35.299Z,4.27
2022-09-01T01:28:09.213Z,2.13
2022-09-01T01:30:39.708Z,2.17
2022-09-01T01:33:08.448Z,2.90
2022-09-01T01:35:37.417Z,3.03
2022-09-01T01:38:08.348Z,2.47
2022-09-01T01:40:38.776Z,2.53
2022-09-01T01:43:07.131Z,2.27
2022-09-01T01:45:35.570Z,2.17
2022-09-01T01:48:08.579Z,2.00
2022-09-01T01:50:37.914Z,2.10
2022-09-01T01:53:10.889Z,2.90
2022-09-01T01:55:41.728Z,3.87
2022-09-01T01:58:12.111Z,2.10
2022-09-01T02:00:42.818Z,2.33
2022-09-01T02:03:12.640Z,3.23
2022-09-01T02:05:41.725Z,2.10
2022-09-01T02:08:12.078Z,1.97
2022-09-01T02:10:44.563Z,2.17
2022-09-01T02:13:16.750Z,1.93
2022-09-01T02:15:47.010Z,3.03
2022-09-01T02:18:18.166Z,4.80
2022-09-01T02:20:47.677Z,12.13
2022-09-01T02:23:18.025Z,12.43
2022-09-01T02:26:14.200Z,15.17
2022-09-01T02:28:39.984Z,16.47
2022-09-01T02:31:09.454Z,11.10
2022-09-01T02:33:38.763Z,13.67
2022-09-01T02:36:13.240Z,11.83
2022-09-01T02:38:46.066Z,9.27
2022-09-01T02:41:23.057Z,8.50
2022-09-01T02:43:51.304Z,8.07
2022-09-01T02:46:22.121Z,8.87
2022-09-01T02:48:51.564Z,8.77
2022-09-01T02:51:22.429Z,8.60
2022-09-01T02:53:52.609Z,5.43
2022-09-01T02:56:25.243Z,6.10
2022-09-01T02:58:54.165Z,6.67
2022-09-01T03:01:24.656Z,6.63
2022-09-01T03:03:54.686Z,4.80
2022-09-01T03:06:24.049Z,7.40
2022-09-01T03:08:53.395Z,6.17
2022-09-01T03:11:24.266Z,3.57
2022-09-01T03:13:53.122Z,4.27
2022-09-01T03:16:22.413Z,4.93
2022-09-01T03:18:51.312Z,2.87
2022-09-01T03:21:19.965Z,4.90
2022-09-01T03:23:49.330Z,2.60
2022-09-01T03:26:19.402Z,3.77
2022-09-01T03:28:50.106Z,5.07
2022-09-01T03:31:19.513Z,2.77
2022-09-01T03:33:48.052Z,3.47
2022-09-01T03:36:20.367Z,4.23
2022-09-01T03:38:49.923Z,2.60
2022-09-01T03:41:19.676Z,4.50
2022-09-01T03:43:49.887Z,4.03
2022-09-01T03:46:21.726Z,3.93
2022-09-01T03:48:52.351Z,2.87
2022-09-01T03:51:22.685Z,4.07
2022-09-01T03:53:54.338Z,2.60
2022-09-01T03:56:24.124Z,2.73
2022-09-01T03:58:53.843Z,3.70
2022-09-01T04:01:22.957Z,2.47
2022-09-01T04:03:52.148Z,3.17
2022-09-01T04:06:23.871Z,3.77
2022-09-01T04:08:55.611Z,4.57
2022-09-01T04:11:23.944Z,4.10
2022-09-01T04:13:53.800Z,3.57
2022-09-01T04:16:42.408Z,5.87
2022-09-01T04:19:20.047Z,3.80
2022-09-01T04:21:50.309Z,3.10
2022-09-01T04:24:18.932Z,5.83
2022-09-01T04:26:49.666Z,3.17
2022-09-01T04:29:19.769Z,3.07
2022-09-01T04:31:52.094Z,2.80
2022-09-01T04:34:20.531Z,4.83
2022-09-01T04:36:50.030Z,3.70
2022-09-01T04:39:23.029Z,3.57
2022-09-01T04:41:51.253Z,4.10
2022-09-01T04:44:20.689Z,3.97
2022-09-01T04:46:50.513Z,4.23
2022-09-01T04:49:22.084Z,5.33
2022-09-01T04:51:53.890Z,5.00
2022-09-01T04:54:23.311Z,3.23
2022-09-01T04:56:53.949Z,3.43
2022-09-01T04:59:27.059Z,5.40
2022-09-01T05:01:57.355Z,5.57
2022-09-01T05:04:28.944Z,5.23
2022-09-01T05:06:59.700Z,6.00
2022-09-01T05:09:29.602Z,5.13
2022-09-01T05:12:01.603Z,6.70
2022-09-01T05:14:31.037Z,5.63
2022-09-01T05:17:01.883Z,7.13
2022-09-01T05:19:30.851Z,7.63
2022-09-01T05:22:00.012Z,9.07
2022-09-01T05:24:30.845Z,10.27
2022-09-01T05:26:59.589Z,10.33
2022-09-01T05:29:29.613Z,6.63
2022-09-01T05:32:00.348Z,3.80
2022-09-01T05:34:29.695Z,8.57
2022-09-01T05:37:00.663Z,8.07
2022-09-01T05:39:28.864Z,6.37
2022-09-01T05:41:57.186Z,11.77
2022-09-01T05:44:25.124Z,26.50
2022-09-01T05:46:53.525Z,14.30
2022-09-01T05:49:23.990Z,9.17
2022-09-01T05:51:57.548Z,9.53
2022-09-01T05:54:27.533Z,9.73
2022-09-01T05:56:57.310Z,7.87
2022-09-01T05:59:26.206Z,7.87
2022-09-01T06:01:54.895Z,5.43
2022-09-01T06:04:25.880Z,7.20
2022-09-01T06:07:06.803Z,8.07
2022-09-01T06:09:39.154Z,5.67
2022-09-01T06:12:07.584Z,6.97
2022-09-01T06:14:36.229Z,10.10
2022-09-01T06:17:04.517Z,6.33
2022-09-01T06:19:37.151Z,5.20
2022-09-01T06:22:05.997Z,4.17
2022-09-01T06:24:34.493Z,6.87
2022-09-01T06:27:02.472Z,3.63
2022-09-01T06:29:31.292Z,2.57
2022-09-01T06:32:02.321Z,3.63
2022-09-01T06:34:33.875Z,3.43
2022-09-01T06:37:03.564Z,2.30
2022-09-01T06:39:31.727Z,4.40
2022-09-01T06:42:00.955Z,3.43
2022-09-01T06:44:31.951Z,3.23
2022-09-01T06:47:01.260Z,4.13
2022-09-01T06:49:34.709Z,5.23
2022-09-01T06:52:05.717Z,2.13
2022-09-01T06:54:35.371Z,2.73
2022-09-01T06:59:54.010Z,2.20
2022-09-01T07:02:26.727Z,3.67
2022-09-01T07:05:59.848Z,2.63
2022-09-01T07:08:07.248Z,2.37
2022-09-01T07:11:19.452Z,3.00
2022-09-01T07:13:25.423Z,2.70
2022-09-01T07:18:44.648Z,3.27
2022-09-01T07:22:06.732Z,5.33
2022-09-01T07:24:18.226Z,2.20
2022-09-01T07:26:49.539Z,4.40
2022-09-01T07:29:21.760Z,2.40
2022-09-01T07:31:51.991Z,3.33
2022-09-01T07:34:39.900Z,4.13
2022-09-01T07:38:02.945Z,6.37
2022-09-01T07:45:31.220Z,6.40
2022-09-01T07:48:03.087Z,10.83
2022-09-01T07:53:22.532Z,5.33
2022-09-01T07:55:54.475Z,3.50
2022-09-01T07:58:24.452Z,3.03
2022-09-01T08:00:53.414Z,5.27
2022-09-01T08:03:24.016Z,3.33
2022-09-01T08:05:57.576Z,4.30
2022-09-01T08:08:28.902Z,4.47
2022-09-01T08:11:05.840Z,6.47
2022-09-01T08:13:38.938Z,2.40
2022-09-01T08:16:18.079Z,4.13
2022-09-01T08:18:48.872Z,3.93
2022-09-01T08:21:19.700Z,3.63
2022-09-01T08:23:47.852Z,4.27
2022-09-01T08:26:20.733Z,3.30
2022-09-01T08:28:55.076Z,3.30
2022-09-01T08:31:30.788Z,4.93
2022-09-01T08:34:00.071Z,1.97
2022-09-01T08:36:28.220Z,2.37
2022-09-01T08:38:56.165Z,1.63
2022-09-01T08:41:38.890Z,5.20
2022-09-01T08:44:18.151Z,2.30
2022-09-01T08:46:46.543Z,3.90
2022-09-01T08:49:25.285Z,1.60
2022-09-01T08:52:00.897Z,4.83
2022-09-01T08:54:36.053Z,4.47
2022-09-01T08:57:09.646Z,2.03
2022-09-01T08:59:38.251Z,2.33
2022-09-01T09:02:24.374Z,5.00
2022-09-01T09:05:01.949Z,3.07
2022-09-01T09:07:46.054Z,4.90
2022-09-01T09:10:20.545Z,4.00
2022-09-01T09:13:03.934Z,3.60
2022-09-01T09:15:41.109Z,2.47
2022-09-01T09:18:34.482Z,1.87
2022-09-01T09:21:12.980Z,2.90
2022-09-01T09:23:45.715Z,4.40
2022-09-01T09:26:16.608Z,2.87
2022-09-01T09:28:51.567Z,3.93
2022-09-01T09:31:36.554Z,1.47
2022-09-01T09:34:04.824Z,1.67
2022-09-01T09:36:36.013Z,4.00
2022-09-01T09:39:11.146Z,3.63
2022-09-01T09:41:41.098Z,1.43
2022-09-01T09:44:23.052Z,2.30
2022-09-01T09:46:51.713Z,2.80
2022-09-01T09:49:36.928Z,4.27
2022-09-01T09:52:18.265Z,1.23
2022-09-01T09:55:03.880Z,2.50
2022-09-01T09:57:39.068Z,1.48
2022-09-01T10:00:20.723Z,1.55
2022-09-01T10:02:58.051Z,2.30
2022-09-01T10:05:36.483Z,4.68
2022-09-01T10:08:06.277Z,1.55
2022-09-01T10:10:40.507Z,3.25
2022-09-01T10:13:13.824Z,4.35
2022-09-01T10:15:49.229Z,2.25
2022-09-01T10:18:28.405Z,2.10
2022-09-01T10:21:01.721Z,2.55
2022-09-01T10:23:32.343Z,1.58
2022-09-01T10:26:06.442Z,5.10
2022-09-01T10:28:44.292Z,2.28
2022-09-01T10:31:19.901Z,2.63
2022-09-01T10:33:48.572Z,3.97
2022-09-01T10:36:18.062Z,5.00
2022-09-01T10:38:53.802Z,1.42
2022-09-01T10:41:53.294Z,1.85
2022-09-01T10:44:31.849Z,2.70
2022-09-01T10:47:06.428Z,3.78
2022-09-01T10:50:10.171Z,2.15
2022-09-01T10:53:08.042Z,1.52
2022-09-01T10:55:41.273Z,2.35
2022-09-01T11:05:18.404Z,2.80
2022-09-01T11:08:14.620Z,1.45
2022-09-01T11:10:56.076Z,1.70
2022-09-01T11:13:49.042Z,3.13
2022-09-01T11:16:51.689Z,4.68
2022-09-01T11:19:41.190Z,2.50
2022-09-01T11:22:32.600Z,1.42
2022-09-01T11:25:23.317Z,1.90
2022-09-01T11:28:32.212Z,1.90
2022-09-01T11:31:12.116Z,1.50
2022-09-01T11:33:52.217Z,2.10
2022-09-01T11:36:29.751Z,6.30
2022-09-01T11:39:06.031Z,2.53
2022-09-01T11:41:43.021Z,1.70
2022-09-01T11:44:15.652Z,1.60
2022-09-01T11:46:46.149Z,2.10
2022-09-01T11:49:30.604Z,2.03
2022-09-01T11:52:00.539Z,3.73
2022-09-01T11:54:30.942Z,7.30
2022-09-01T11:56:59.001Z,4.10
2022-09-01T11:59:35.842Z,4.70
2022-09-01T12:02:05.680Z,2.53
2022-09-01T12:04:40.062Z,4.23
2022-09-01T12:07:10.848Z,1.93
2022-09-01T12:09:43.183Z,3.87
2022-09-01T12:12:36.146Z,5.50
2022-09-01T12:15:09.208Z,5.17
2022-09-01T12:17:38.538Z,6.10
2022-09-01T12:20:31.055Z,4.33
2022-09-01T12:23:02.386Z,3.50
2022-09-01T12:25:32.127Z,3.00
2022-09-01T12:28:01.141Z,1.73
2022-09-01T12:30:29.857Z,2.30
2022-09-01T12:35:49.582Z,2.77
2022-09-01T12:38:25.114Z,3.57
2022-09-01T12:40:56.094Z,2.30
2022-09-01T12:43:34.106Z,3.97
2022-09-01T12:46:04.694Z,3.17
2022-09-01T12:48:36.151Z,2.60
2022-09-01T12:51:09.388Z,3.53
2022-09-01T12:53:37.641Z,5.90
2022-09-01T12:56:20.736Z,2.70
2022-09-01T12:58:52.179Z,3.73
2022-09-01T13:01:29.732Z,3.27
2022-09-01T13:04:25.727Z,2.63
2022-09-01T13:06:54.540Z,1.90
2022-09-01T13:09:22.582Z,3.07
2022-09-01T13:12:07.492Z,1.97
2022-09-01T13:14:35.920Z,3.10
2022-09-01T13:17:04.246Z,2.50
2022-09-01T13:19:33.552Z,5.17
2022-09-01T13:22:02.088Z,4.30
2022-09-01T13:24:31.604Z,6.07
2022-09-01T13:29:48.210Z,6.20
2022-09-01T13:32:18.428Z,5.37
2022-09-01T13:34:50.756Z,10.83
2022-09-01T13:37:20.202Z,10.03
2022-09-01T13:39:48.636Z,3.63
2022-09-01T13:42:17.368Z,5.40
2022-09-01T13:44:48.383Z,3.63
2022-09-01T13:47:35.447Z,3.53
2022-09-01T13:50:12.188Z,3.00
2022-09-01T13:52:44.466Z,6.93
2022-09-01T13:55:15.640Z,8.07
2022-09-01T13:57:43.898Z,1.70
2022-09-01T14:00:16.475Z,3.00
2022-09-01T14:02:48.992Z,4.17
2022-09-01T14:05:20.560Z,3.23
2022-09-01T14:07:49.393Z,9.63
2022-09-01T14:10:18.206Z,4.50
2022-09-01T14:12:49.148Z,3.20
2022-09-01T14:15:22.610Z,2.10
2022-09-01T14:17:56.134Z,4.80
2022-09-01T14:20:30.095Z,2.00
2022-09-01T14:23:00.207Z,3.33
2022-09-01T14:25:28.101Z,2.20
2022-09-01T14:27:57.111Z,2.27
2022-09-01T14:30:31.431Z,5.60
2022-09-01T14:33:00.553Z,1.80
2022-09-01T14:35:33.883Z,2.63
2022-09-01T14:38:02.979Z,1.73
2022-09-01T14:40:30.993Z,5.10
2022-09-01T14:42:59.079Z,2.13
2022-09-01T14:45:28.674Z,2.33
2022-09-01T14:48:01.320Z,6.20
2022-09-01T14:50:33.419Z,2.87
2022-09-01T14:53:03.338Z,2.43
2022-09-01T14:55:32.762Z,2.40
2022-09-01T14:58:01.616Z,5.40
2022-09-01T15:00:31.564Z,2.00
2022-09-01T15:02:59.788Z,3.03
2022-09-01T15:05:27.889Z,2.80
2022-09-01T15:07:57.219Z,3.73
2022-09-01T15:10:28.117Z,1.87
2022-09-01T15:12:58.017Z,4.57
2022-09-01T15:15:27.615Z,4.07
2022-09-01T15:17:56.592Z,2.10
2022-09-01T15:20:42.756Z,2.20
2022-09-01T15:23:12.799Z,4.20
2022-09-01T15:25:40.727Z,1.87
2022-09-01T15:28:08.970Z,3.83
2022-09-01T15:30:38.196Z,3.60
2022-09-01T15:33:14.706Z,8.63
2022-09-01T15:35:44.232Z,6.83
2022-09-01T15:38:17.126Z,4.00
2022-09-01T15:40:48.703Z,2.20
2022-09-01T15:43:25.452Z,5.03
2022-09-01T15:45:53.438Z,4.53
2022-09-01T15:48:21.466Z,3.37
2022-09-01T15:50:49.361Z,1.83
2022-09-01T15:53:19.160Z,2.50
2022-09-01T15:55:49.317Z,1.97
2022-09-01T15:58:19.359Z,3.47
2022-09-01T16:00:47.759Z,3.37
2022-09-01T16:03:15.980Z,2.00
2022-09-01T16:05:43.937Z,2.10
2022-09-01T16:08:12.219Z,3.17
2022-09-01T16:10:43.019Z,2.10
2022-09-01T16:13:12.948Z,2.17
2022-09-01T16:15:45.714Z,2.23
2022-09-01T16:18:25.268Z,2.13
2022-09-01T16:21:00.068Z,3.47
2022-09-01T16:23:38.840Z,4.03
2022-09-01T16:26:08.254Z,1.70
2022-09-01T16:28:37.881Z,1.57
2022-09-01T16:31:12.592Z,1.80
2022-09-01T16:33:43.676Z,1.53
2022-09-01T16:36:29.590Z,1.70
2022-09-01T16:39:03.762Z,2.60
2022-09-01T16:41:45.214Z,3.13
2022-09-01T16:44:24.676Z,1.70
2022-09-01T16:47:01.436Z,1.93
2022-09-01T16:49:35.595Z,2.03
2022-09-01T16:52:08.758Z,6.37
2022-09-01T16:54:51.267Z,5.17
2022-09-01T16:57:29.256Z,1.93
2022-09-01T17:00:00.556Z,1.80
2022-09-01T17:02:42.178Z,3.60
2022-09-01T17:05:20.513Z,3.10
2022-09-01T17:07:52.890Z,2.20
2022-09-01T17:10:33.474Z,3.07
2022-09-01T17:13:17.251Z,4.87
2022-09-01T17:15:50.266Z,5.30
2022-09-01T17:18:25.936Z,3.13
2022-09-01T17:21:02.072Z,2.87
2022-09-01T17:23:38.017Z,5.17
2022-09-01T17:26:13.382Z,1.73
2022-09-01T17:28:48.806Z,4.03
2022-09-01T17:31:31.756Z,3.50
2022-09-01T17:34:11.533Z,2.23
2022-09-01T17:36:49.479Z,3.53
2022-09-01T17:39:30.666Z,3.07
2022-09-01T17:42:07.351Z,3.27
2022-09-01T17:44:43.083Z,3.87
2022-09-01T17:47:20.156Z,1.77
2022-09-01T17:49:55.122Z,2.00
2022-09-01T17:52:37.106Z,2.33
2022-09-01T17:55:15.640Z,3.80
2022-09-01T17:57:50.864Z,3.93
2022-09-01T18:00:24.243Z,3.47
2022-09-01T18:03:09.941Z,2.70
2022-09-01T18:05:41.605Z,2.60
2022-09-01T18:08:21.568Z,3.60
2022-09-01T18:10:55.068Z,2.43
2022-09-01T18:13:52.767Z,3.63
2022-09-01T18:16:19.818Z,2.50
2022-09-01T18:18:51.002Z,2.83
2022-09-01T18:21:21.280Z,3.60
2022-09-01T18:23:52.474Z,2.83
2022-09-01T18:26:29.735Z,1.67
2022-09-01T18:28:58.264Z,1.60
2022-09-01T18:31:56.116Z,2.00
2022-09-01T18:34:36.091Z,7.03
2022-09-01T18:37:12.431Z,3.40
2022-09-01T18:39:51.384Z,4.90
2022-09-01T18:42:29.551Z,6.10
2022-09-01T18:45:06.123Z,1.97
2022-09-01T18:47:37.367Z,1.67
2022-09-01T18:50:15.042Z,2.10
2022-09-01T18:53:00.196Z,3.27
2022-09-01T18:55:34.636Z,2.27
2022-09-01T18:58:09.432Z,2.47
2022-09-01T19:00:45.337Z,2.93
2022-09-01T19:03:29.825Z,4.33
2022-09-01T19:06:13.206Z,2.30
2022-09-01T19:08:55.432Z,3.93
2022-09-01T19:11:36.414Z,3.23
2022-09-01T19:14:14.872Z,2.70
2022-09-01T19:16:57.011Z,5.53
2022-09-01T19:19:39.506Z,3.47
2022-09-01T19:22:08.061Z,3.23
2022-09-01T19:24:41.835Z,4.60
2022-09-01T19:27:14.212Z,2.83
2022-09-01T19:29:47.975Z,3.47
2022-09-01T19:32:20.340Z,3.67
2022-09-01T19:34:54.310Z,6.90
2022-09-01T19:37:22.859Z,4.50
2022-09-01T19:39:54.110Z,5.17
2022-09-01T19:42:27.259Z,2.93
2022-09-01T19:45:06.882Z,3.33
2022-09-01T19:47:40.197Z,4.50
2022-09-01T19:50:17.619Z,4.70
2022-09-01T19:52:51.832Z,3.27
2022-09-01T19:55:27.992Z,4.00
2022-09-01T19:58:02.814Z,2.20
2022-09-01T20:00:41.932Z,3.70
2022-09-01T20:03:14.170Z,5.87
2022-09-01T20:05:48.952Z,2.43
2022-09-01T20:08:24.165Z,4.57
2022-09-01T20:10:59.983Z,4.60
2022-09-01T20:13:58.206Z,2.33
2022-09-01T20:16:31.133Z,3.27
2022-09-01T20:19:04.563Z,8.07
2022-09-01T20:21:39.236Z,2.63
2022-09-01T20:24:14.886Z,3.33
2022-09-01T20:26:49.031Z,3.23
2022-09-01T20:29:23.082Z,2.60
2022-09-01T20:31:56.383Z,2.30
2022-09-01T20:34:32.320Z,2.70
2022-09-01T20:37:05.945Z,3.53
2022-09-01T20:39:59.883Z,1.80
2022-09-01T20:42:34.757Z,1.83
2022-09-01T20:45:10.684Z,2.30
2022-09-01T20:47:38.683Z,3.90
2022-09-01T20:50:12.591Z,3.07
2022-09-01T20:52:55.505Z,3.90
2022-09-01T20:55:30.091Z,2.20
2022-09-01T20:58:07.711Z,3.97
2022-09-01T21:00:43.156Z,1.43
2022-09-01T21:03:18.768Z,2.97
2022-09-01T21:05:55.006Z,2.83
2022-09-01T21:08:39.538Z,3.47
2022-09-01T21:11:19.754Z,2.10
2022-09-01T21:13:57.131Z,2.77
2022-09-01T21:16:33.459Z,3.10
2022-09-01T21:19:08.180Z,1.83
2022-09-01T21:21:46.414Z,5.13
2022-09-01T21:24:15.736Z,3.43
2022-09-01T21:26:44.964Z,1.60
2022-09-01T21:29:31.088Z,4.70
2022-09-01T21:31:59.526Z,4.30
2022-09-01T21:34:27.653Z,6.67
2022-09-01T21:36:55.651Z,2.23
2022-09-01T21:39:24.978Z,3.67
2022-09-01T21:41:53.036Z,3.47
2022-09-01T21:44:22.215Z,6.73
2022-09-01T21:46:50.362Z,1.67
2022-09-01T21:49:18.326Z,5.67
2022-09-01T21:51:46.489Z,1.30
2022-09-01T21:54:14.624Z,4.27
2022-09-01T21:56:43.931Z,4.70
2022-09-01T21:59:13.416Z,3.33
2022-09-01T22:01:41.449Z,2.73
2022-09-01T22:04:09.433Z,4.70
2022-09-01T22:06:39.599Z,2.40
2022-09-01T22:09:20.275Z,5.03
2022-09-01T22:11:51.769Z,4.97
2022-09-01T22:14:20.187Z,2.83
2022-09-01T22:16:48.835Z,2.17
2022-09-01T22:19:17.306Z,2.37
2022-09-01T22:21:48.334Z,4.23
2022-09-01T22:24:19.351Z,2.30
2022-09-01T22:26:48.621Z,2.87
2022-09-01T22:29:18.533Z,3.77
2022-09-01T22:31:46.596Z,3.03
2022-09-01T22:34:14.561Z,3.20
2022-09-01T22:36:47.831Z,2.33
2022-09-01T22:39:17.323Z,1.40
2022-09-01T22:41:45.291Z,3.17
2022-09-01T22:44:13.279Z,5.30
2022-09-01T22:46:42.673Z,6.67
2022-09-01T22:49:12.140Z,4.80
2022-09-01T22:51:42.926Z,5.80
2022-09-01T22:54:11.640Z,2.80
2022-09-01T22:56:40.743Z,4.60
2022-09-01T22:59:11.669Z,4.00
2022-09-01T23:01:43.397Z,3.30
2022-09-01T23:04:13.685Z,5.50
2022-09-01T23:06:44.858Z,4.50
2022-09-01T23:09:13.914Z,2.33
2022-09-01T23:11:42.134Z,5.70
2022-09-01T23:14:10.472Z,3.57
2022-09-01T23:16:39.220Z,2.13
2022-09-01T23:19:09.138Z,2.70
2022-09-01T23:21:39.343Z,2.27
2022-09-01T23:24:08.304Z,3.67
2022-09-01T23:26:36.966Z,2.63
2022-09-01T23:29:05.892Z,3.37
2022-09-01T23:31:36.730Z,4.53
2022-09-01T23:34:05.927Z,3.80
2022-09-01T23:36:36.866Z,2.37
2022-09-01T23:39:05.344Z,1.90
2022-09-01T23:41:35.691Z,2.80
2022-09-01T23:44:06.081Z,2.87
2022-09-01T23:46:37.034Z,4.83
2022-09-01T23:49:05.948Z,3.20
2022-09-01T23:51:35.860Z,2.90
2022-09-01T23:54:03.886Z,2.43
2022-09-01T23:56:32.256Z,4.57
2022-09-01T23:59:01.164Z,3.30
